Marina Lobra — IXVN — position and weather

sailwx.info

Track history (hours):
 
Tides and Currents Weather Stations Pressure Air Temp Water Temp Dewpoint Dewpoint Depression Visibility Wind Speed Wind Dir Waves Ship Positions

Marina Lobra

Last reported at 2016-Apr-30 19:14 UTC. Time now 2016-May-05 02:57 UTC.
Position N 40°51' E 014°16'.

Length 56 m; draft 2.5 m.

Type: Ship (hazmat cat C). MMSI: 247188300.

Date/timePositionNaut miles runAvg speedWind from/ knotsBaromVisibWave heightAir tempDewpointWater temp
2016-Apr-30 19:14N 40°51' E 014°16'0 0.0
2016-Apr-30 17:33N 40°51' E 014°16'0 0.0
2016-Apr-28 15:24N 40°51' E 014°16'0 0.1
2016-Apr-28 12:08N 40°50' E 014°16'0 0.0
2016-Apr-28 11:29N 40°50' E 014°16'0 0.2
2016-Apr-28 10:33N 40°50' E 014°16'0 0.1
2016-Apr-28 09:32N 40°50' E 014°16'0 0.0
2016-Apr-28 08:09N 40°50' E 014°16'0 0.0
2016-Apr-28 07:32N 40°50' E 014°16'0 0.0
2016-Apr-27 21:25N 40°51' E 014°16'0 0.0
2016-Apr-27 20:16N 40°51' E 014°16'0 0.0
2016-Apr-27 17:06N 40°51' E 014°16'0 0.0
2016-Apr-27 15:28N 40°51' E 014°16'1 1.4
2016-Apr-27 14:33N 40°50' E 014°17'0 0.0
2016-Apr-27 13:33N 40°50' E 014°17'0 0.0
2016-Apr-27 12:33N 40°50' E 014°17'0 0.0
2016-Apr-27 11:33N 40°50' E 014°17'1 1.1
2016-Apr-27 10:30N 40°51' E 014°16'0 0.0
2016-Apr-27 09:31N 40°51' E 014°16'0 0.0
2016-Apr-27 08:31N 40°51' E 014°16'0 0.0
2016-Apr-27 07:32N 40°51' E 014°16'0 0.0
2016-Apr-27 06:33N 40°51' E 014°16'0 0.0
2016-Apr-27 05:33N 40°51' E 014°16'0 0.0
2016-Apr-27 04:33N 40°51' E 014°16'0 0.0
2016-Apr-27 03:33N 40°51' E 014°16'0 0.0
2016-Apr-27 02:33N 40°51' E 014°16'0 0.0
2016-Apr-27 01:31N 40°51' E 014°16'0 0.0
2016-Apr-27 00:32N 40°51' E 014°16'0 0.0
2016-Apr-26 23:29N 40°51' E 014°16'0 0.0
2016-Apr-26 22:33N 40°51' E 014°16'0 0.0
2016-Apr-26 21:31N 40°51' E 014°16'0 0.0
2016-Apr-26 20:32N 40°51' E 014°16'0 0.0
2016-Apr-26 19:33N 40°51' E 014°16'0 0.0
2016-Apr-26 18:33N 40°51' E 014°16'0 0.0
2016-Apr-26 17:33N 40°51' E 014°16'0 0.0
2016-Apr-26 16:32N 40°51' E 014°16'0 0.0
2016-Apr-26 15:33N 40°51' E 014°16'0 0.0
2016-Apr-26 14:33N 40°51' E 014°16'0 0.2
2016-Apr-26 12:19N 40°50' E 014°16'0 0.0
2016-Apr-26 11:14N 40°50' E 014°16'1 2.1
2016-Apr-26 10:33N 40°50' E 014°17'0 0.0
2016-Apr-26 09:33N 40°50' E 014°17'0 0.0
2016-Apr-26 08:33N 40°50' E 014°17'0 0.0
2016-Apr-26 07:33N 40°50' E 014°17'1 0.4
2016-Apr-26 04:22N 40°51' E 014°16'0 0.0
2016-Apr-25 18:18N 40°51' E 014°16'0 0.0
2016-Apr-25 17:26N 40°51' E 014°16'0 0.0
2016-Apr-25 16:31N 40°51' E 014°16'0 0.0
2016-Apr-25 15:25N 40°51' E 014°16'0 0.0
2016-Apr-25 14:29N 40°51' E 014°16'0 0.0
2016-Apr-25 13:33N 40°51' E 014°16'0 0.0
2016-Apr-25 12:19N 40°51' E 014°16'0 0.0
2016-Apr-25 10:32N 40°51' E 014°16'0 0.0
2016-Apr-25 09:33N 40°51' E 014°16'0 0.0
2016-Apr-25 08:31N 40°51' E 014°16'0 0.0
2016-Apr-25 07:33N 40°51' E 014°16'0 0.0
2016-Apr-25 06:33N 40°51' E 014°16'0 0.0
2016-Apr-25 05:30N 40°51' E 014°16'0 0.0
2016-Apr-25 04:16N 40°51' E 014°16'0 0.0
2016-Apr-25 03:25N 40°51' E 014°16'0 0.0
2016-Apr-25 02:16N 40°51' E 014°16'0 0.0
2016-Apr-25 01:23N 40°51' E 014°16'0 0.0
2016-Apr-25 00:33N 40°51' E 014°16'0 0.0
2016-Apr-24 23:33N 40°51' E 014°16'0 0.0
2016-Apr-24 22:32N 40°51' E 014°16'0 0.0
2016-Apr-24 21:33N 40°51' E 014°16'0 0.0
2016-Apr-24 20:32N 40°51' E 014°16'0 0.0
2016-Apr-24 19:33N 40°51' E 014°16'1 0.1
2016-Apr-24 09:24N 40°50' E 014°17'0 0.0
2016-Apr-24 08:33N 40°50' E 014°17'0 0.0
2016-Apr-24 07:33N 40°50' E 014°17'1 1.0
2016-Apr-24 06:27N 40°51' E 014°16'1 0.1
2016-Apr-23 06:33N 40°50' E 014°17'2 1.7
2016-Apr-23 05:33N 40°49' E 014°18'7 6.9
2016-Apr-23 04:33N 40°42' E 014°18'7 7.0
2016-Apr-23 03:33N 40°35' E 014°15'2 1.6
2016-Apr-23 02:33N 40°33' E 014°14'0 0.0
2016-Apr-23 01:33N 40°33' E 014°14'0 0.0
2016-Apr-23 00:33N 40°33' E 014°14'0 0.0
2016-Apr-22 23:33N 40°33' E 014°14'0 0.0
2016-Apr-22 22:33N 40°33' E 014°14'0 0.0
2016-Apr-22 21:33N 40°33' E 014°14'0 0.0
2016-Apr-22 20:33N 40°33' E 014°14'4 3.8
2016-Apr-22 19:33N 40°37' E 014°16'6 6.5
2016-Apr-22 18:33N 40°43' E 014°17'6 6.1
2016-Apr-22 17:33N 40°49' E 014°18'1 0.9
2016-Apr-22 16:33N 40°50' E 014°17'0 0.0
2016-Apr-22 15:33N 40°50' E 014°17'0 0.0
2016-Apr-22 14:33N 40°50' E 014°17'0 0.0
2016-Apr-22 13:33N 40°50' E 014°17'0 0.0
2016-Apr-22 12:33N 40°50' E 014°17'0 0.0
2016-Apr-22 11:33N 40°50' E 014°17'1 1.4
2016-Apr-22 10:32N 40°51' E 014°16'0 0.0
2016-Apr-22 09:32N 40°51' E 014°16'0 0.0
2016-Apr-22 08:33N 40°51' E 014°16'0 0.0
2016-Apr-22 07:27N 40°51' E 014°16'0 0.1
2016-Apr-22 02:20N 40°51' E 014°16'0 0.0
2016-Apr-21 22:23N 40°51' E 014°16'0 0.0
2016-Apr-21 21:33N 40°51' E 014°16'0 0.0
2016-Apr-21 20:31N 40°51' E 014°16'0 0.0
2016-Apr-21 19:33N 40°51' E 014°16'0 0.0
2016-Apr-21 17:33N 40°51' E 014°16'1 0.6
2016-Apr-21 15:33N 40°50' E 014°17'0 0.0
2016-Apr-21 14:33N 40°50' E 014°17'0 0.0
2016-Apr-21 13:33N 40°50' E 014°17'0 0.0
2016-Apr-21 12:32N 40°50' E 014°17'1 1.2
2016-Apr-21 11:33N 40°51' E 014°16'0 0.1
2016-Apr-21 08:29N 40°51' E 014°16'0 0.0
2016-Apr-21 07:32N 40°51' E 014°16'0 0.0
2016-Apr-21 06:33N 40°51' E 014°16'  
Track history (hours):
 
Tides and Currents Weather Stations Pressure Air Temp Water Temp Dewpoint Dewpoint Depression Visibility Wind Speed Wind Dir Waves Ship Positions

Marina Lobra

Last reported at 2016-Apr-30 19:14 UTC. Time now 2016-May-05 02:57 UTC.
Position N 40°51' E 014°16'.

Length 56 m; draft 2.5 m.

Type: Ship (hazmat cat C). MMSI: 247188300.

Date/timePositionNaut miles runAvg speedWind from/ knotsBaromVisibWave heightAir tempDewpointWater temp
2016-Apr-30 19:14N 40°51' E 014°16'0 0.0
2016-Apr-30 17:33N 40°51' E 014°16'0 0.0
2016-Apr-28 15:24N 40°51' E 014°16'0 0.1
2016-Apr-28 12:08N 40°50' E 014°16'0 0.0
2016-Apr-28 11:29N 40°50' E 014°16'0 0.2
2016-Apr-28 10:33N 40°50' E 014°16'0 0.1
2016-Apr-28 09:32N 40°50' E 014°16'0 0.0
2016-Apr-28 08:09N 40°50' E 014°16'0 0.0
2016-Apr-28 07:32N 40°50' E 014°16'0 0.0
2016-Apr-27 21:25N 40°51' E 014°16'0 0.0
2016-Apr-27 20:16N 40°51' E 014°16'0 0.0
2016-Apr-27 17:06N 40°51' E 014°16'0 0.0
2016-Apr-27 15:28N 40°51' E 014°16'1 1.4
2016-Apr-27 14:33N 40°50' E 014°17'0 0.0
2016-Apr-27 13:33N 40°50' E 014°17'0 0.0
2016-Apr-27 12:33N 40°50' E 014°17'0 0.0
2016-Apr-27 11:33N 40°50' E 014°17'1 1.1
2016-Apr-27 10:30N 40°51' E 014°16'0 0.0
2016-Apr-27 09:31N 40°51' E 014°16'0 0.0
2016-Apr-27 08:31N 40°51' E 014°16'0 0.0
2016-Apr-27 07:32N 40°51' E 014°16'0 0.0
2016-Apr-27 06:33N 40°51' E 014°16'0 0.0
2016-Apr-27 05:33N 40°51' E 014°16'0 0.0
2016-Apr-27 04:33N 40°51' E 014°16'0 0.0
2016-Apr-27 03:33N 40°51' E 014°16'0 0.0
2016-Apr-27 02:33N 40°51' E 014°16'0 0.0
2016-Apr-27 01:31N 40°51' E 014°16'0 0.0
2016-Apr-27 00:32N 40°51' E 014°16'0 0.0
2016-Apr-26 23:29N 40°51' E 014°16'0 0.0
2016-Apr-26 22:33N 40°51' E 014°16'0 0.0
2016-Apr-26 21:31N 40°51' E 014°16'0 0.0
2016-Apr-26 20:32N 40°51' E 014°16'0 0.0
2016-Apr-26 19:33N 40°51' E 014°16'0 0.0
2016-Apr-26 18:33N 40°51' E 014°16'0 0.0
2016-Apr-26 17:33N 40°51' E 014°16'0 0.0
2016-Apr-26 16:32N 40°51' E 014°16'0 0.0
2016-Apr-26 15:33N 40°51' E 014°16'0 0.0
2016-Apr-26 14:33N 40°51' E 014°16'0 0.2
2016-Apr-26 12:19N 40°50' E 014°16'0 0.0
2016-Apr-26 11:14N 40°50' E 014°16'1 2.1
2016-Apr-26 10:33N 40°50' E 014°17'0 0.0
2016-Apr-26 09:33N 40°50' E 014°17'0 0.0
2016-Apr-26 08:33N 40°50' E 014°17'0 0.0
2016-Apr-26 07:33N 40°50' E 014°17'1 0.4
2016-Apr-26 04:22N 40°51' E 014°16'0 0.0
2016-Apr-25 18:18N 40°51' E 014°16'0 0.0
2016-Apr-25 17:26N 40°51' E 014°16'0 0.0
2016-Apr-25 16:31N 40°51' E 014°16'0 0.0
2016-Apr-25 15:25N 40°51' E 014°16'0 0.0
2016-Apr-25 14:29N 40°51' E 014°16'0 0.0
2016-Apr-25 13:33N 40°51' E 014°16'0 0.0
2016-Apr-25 12:19N 40°51' E 014°16'0 0.0
2016-Apr-25 10:32N 40°51' E 014°16'0 0.0
2016-Apr-25 09:33N 40°51' E 014°16'0 0.0
2016-Apr-25 08:31N 40°51' E 014°16'0 0.0
2016-Apr-25 07:33N 40°51' E 014°16'0 0.0
2016-Apr-25 06:33N 40°51' E 014°16'0 0.0
2016-Apr-25 05:30N 40°51' E 014°16'0 0.0
2016-Apr-25 04:16N 40°51' E 014°16'0 0.0
2016-Apr-25 03:25N 40°51' E 014°16'0 0.0
2016-Apr-25 02:16N 40°51' E 014°16'0 0.0
2016-Apr-25 01:23N 40°51' E 014°16'0 0.0
2016-Apr-25 00:33N 40°51' E 014°16'0 0.0
2016-Apr-24 23:33N 40°51' E 014°16'0 0.0
2016-Apr-24 22:32N 40°51' E 014°16'0 0.0
2016-Apr-24 21:33N 40°51' E 014°16'0 0.0
2016-Apr-24 20:32N 40°51' E 014°16'0 0.0
2016-Apr-24 19:33N 40°51' E 014°16'1 0.1
2016-Apr-24 09:24N 40°50' E 014°17'0 0.0
2016-Apr-24 08:33N 40°50' E 014°17'0 0.0
2016-Apr-24 07:33N 40°50' E 014°17'1 1.0
2016-Apr-24 06:27N 40°51' E 014°16'1 0.1
2016-Apr-23 06:33N 40°50' E 014°17'2 1.7
2016-Apr-23 05:33N 40°49' E 014°18'7 6.9
2016-Apr-23 04:33N 40°42' E 014°18'7 7.0
2016-Apr-23 03:33N 40°35' E 014°15'2 1.6
2016-Apr-23 02:33N 40°33' E 014°14'0 0.0
2016-Apr-23 01:33N 40°33' E 014°14'0 0.0
2016-Apr-23 00:33N 40°33' E 014°14'0 0.0
2016-Apr-22 23:33N 40°33' E 014°14'0 0.0
2016-Apr-22 22:33N 40°33' E 014°14'0 0.0
2016-Apr-22 21:33N 40°33' E 014°14'0 0.0
2016-Apr-22 20:33N 40°33' E 014°14'4 3.8
2016-Apr-22 19:33N 40°37' E 014°16'6 6.5
2016-Apr-22 18:33N 40°43' E 014°17'6 6.1
2016-Apr-22 17:33N 40°49' E 014°18'1 0.9
2016-Apr-22 16:33N 40°50' E 014°17'0 0.0
2016-Apr-22 15:33N 40°50' E 014°17'0 0.0
2016-Apr-22 14:33N 40°50' E 014°17'0 0.0
2016-Apr-22 13:33N 40°50' E 014°17'0 0.0
2016-Apr-22 12:33N 40°50' E 014°17'0 0.0
2016-Apr-22 11:33N 40°50' E 014°17'1 1.4
2016-Apr-22 10:32N 40°51' E 014°16'0 0.0
2016-Apr-22 09:32N 40°51' E 014°16'0 0.0
2016-Apr-22 08:33N 40°51' E 014°16'0 0.0
2016-Apr-22 07:27N 40°51' E 014°16'0 0.1
2016-Apr-22 02:20N 40°51' E 014°16'0 0.0
2016-Apr-21 22:23N 40°51' E 014°16'0 0.0
2016-Apr-21 21:33N 40°51' E 014°16'0 0.0
2016-Apr-21 20:31N 40°51' E 014°16'0 0.0
2016-Apr-21 19:33N 40°51' E 014°16'0 0.0
2016-Apr-21 17:33N 40°51' E 014°16'1 0.6
2016-Apr-21 15:33N 40°50' E 014°17'0 0.0
2016-Apr-21 14:33N 40°50' E 014°17'0 0.0
2016-Apr-21 13:33N 40°50' E 014°17'0 0.0
2016-Apr-21 12:32N 40°50' E 014°17'1 1.2
2016-Apr-21 11:33N 40°51' E 014°16'0 0.1
2016-Apr-21 08:29N 40°51' E 014°16'0 0.0
2016-Apr-21 07:32N 40°51' E 014°16'0 0.0
2016-Apr-21 06:33N 40°51' E 014°16'  

Dump ship's entire track history